sensor_id;sensor_type;location;lat;lon;timestamp;noise_LAeq;noise_LA_min;noise_LA_max;noise_LA01;noise_LA95
67398;Laerm;57728;50.448;18.824;2023-03-23T00:00:41;33.55;32.04;40.68;;
67398;Laerm;57728;50.448;18.824;2023-03-23T00:02:42;33.78;32.25;42.18;;
67398;Laerm;57728;50.448;18.824;2023-03-23T00:04:45;33.55;32.51;37.70;;
67398;Laerm;57728;50.448;18.824;2023-03-23T00:06:50;33.51;32.40;39.57;;
67398;Laerm;57728;50.448;18.824;2023-03-23T00:08:53;33.47;32.35;35.77;;
67398;Laerm;57728;50.448;18.824;2023-03-23T00:11:01;33.58;32.22;41.55;;
67398;Laerm;57728;50.448;18.824;2023-03-23T00:13:02;33.51;32.40;39.41;;
67398;Laerm;57728;50.448;18.824;2023-03-23T00:15:07;33.65;32.37;44.51;;
67398;Laerm;57728;50.448;18.824;2023-03-23T00:17:14;33.46;32.31;37.51;;
67398;Laerm;57728;50.448;18.824;2023-03-23T00:19:17;33.42;32.43;35.33;;
67398;Laerm;57728;50.448;18.824;2023-03-23T00:21:23;33.55;32.25;37.86;;
67398;Laerm;57728;50.448;18.824;2023-03-23T00:23:45;33.52;32.33;39.13;;
67398;Laerm;57728;50.448;18.824;2023-03-23T00:25:54;33.61;32.19;41.67;;
67398;Laerm;57728;50.448;18.824;2023-03-23T00:27:57;33.67;32.49;44.59;;
67398;Laerm;57728;50.448;18.824;2023-03-23T00:30:00;33.96;32.18;46.74;;
67398;Laerm;57728;50.448;18.824;2023-03-23T00:32:01;33.63;32.32;47.58;;
67398;Laerm;57728;50.448;18.824;2023-03-23T00:34:07;33.61;32.33;44.41;;
67398;Laerm;57728;50.448;18.824;2023-03-23T00:36:13;33.40;32.22;35.54;;
67398;Laerm;57728;50.448;18.824;2023-03-23T00:38:15;33.56;32.42;37.51;;
67398;Laerm;57728;50.448;18.824;2023-03-23T00:40:16;33.71;32.38;44.19;;
67398;Laerm;57728;50.448;18.824;2023-03-23T00:42:18;33.98;32.40;50.17;;
67398;Laerm;57728;50.448;18.824;2023-03-23T00:44:20;35.36;32.52;57.15;;
67398;Laerm;57728;50.448;18.824;2023-03-23T00:46:24;33.49;32.38;37.78;;
67398;Laerm;57728;50.448;18.824;2023-03-23T00:48:29;33.87;32.22;46.25;;
67398;Laerm;57728;50.448;18.824;2023-03-23T00:50:31;34.22;32.47;46.51;;
67398;Laerm;57728;50.448;18.824;2023-03-23T00:52:32;33.54;32.36;41.84;;
67398;Laerm;57728;50.448;18.824;2023-03-23T00:54:34;33.54;32.31;38.85;;
67398;Laerm;57728;50.448;18.824;2023-03-23T00:56:39;33.72;32.25;44.77;;
67398;Laerm;57728;50.448;18.824;2023-03-23T00:58:41;33.46;32.46;38.15;;
67398;Laerm;57728;50.448;18.824;2023-03-23T01:00:44;33.57;32.33;39.15;;
67398;Laerm;57728;50.448;18.824;2023-03-23T01:02:45;33.99;32.41;46.04;;
67398;Laerm;57728;50.448;18.824;2023-03-23T01:04:47;34.07;32.16;53.04;;
67398;Laerm;57728;50.448;18.824;2023-03-23T01:06:53;33.47;32.34;37.08;;
67398;Laerm;57728;50.448;18.824;2023-03-23T01:08:55;33.46;32.37;37.25;;
67398;Laerm;57728;50.448;18.824;2023-03-23T01:11:06;33.50;32.28;41.18;;
67398;Laerm;57728;50.448;18.824;2023-03-23T01:13:08;33.50;32.22;39.84;;
67398;Laerm;57728;50.448;18.824;2023-03-23T01:15:16;33.43;32.23;38.34;;
67398;Laerm;57728;50.448;18.824;2023-03-23T01:17:17;33.70;32.27;40.94;;
67398;Laerm;57728;50.448;18.824;2023-03-23T01:19:20;33.57;32.51;38.86;;
67398;Laerm;57728;50.448;18.824;2023-03-23T01:21:22;33.47;32.42;36.20;;
67398;Laerm;57728;50.448;18.824;2023-03-23T01:23:23;33.66;32.34;42.30;;
67398;Laerm;57728;50.448;18.824;2023-03-23T01:25:31;33.64;32.37;41.22;;
67398;Laerm;57728;50.448;18.824;2023-03-23T01:27:33;33.74;32.45;45.55;;
67398;Laerm;57728;50.448;18.824;2023-03-23T01:29:36;33.66;32.23;41.99;;
67398;Laerm;57728;50.448;18.824;2023-03-23T01:31:38;33.85;32.53;44.56;;
67398;Laerm;57728;50.448;18.824;2023-03-23T01:33:43;33.94;32.53;47.12;;
67398;Laerm;57728;50.448;18.824;2023-03-23T01:35:45;33.80;32.32;45.37;;
67398;Laerm;57728;50.448;18.824;2023-03-23T01:37:47;34.16;32.42;51.44;;
67398;Laerm;57728;50.448;18.824;2023-03-23T01:39:49;33.72;32.27;45.69;;
67398;Laerm;57728;50.448;18.824;2023-03-23T01:41:50;33.88;32.25;44.24;;
67398;Laerm;57728;50.448;18.824;2023-03-23T01:44:59;33.59;32.22;39.73;;
67398;Laerm;57728;50.448;18.824;2023-03-23T01:46:35;33.53;32.34;42.91;;
67398;Laerm;57728;50.448;18.824;2023-03-23T01:48:39;33.71;32.36;44.30;;
67398;Laerm;57728;50.448;18.824;2023-03-23T01:50:59;33.54;32.05;40.62;;
67398;Laerm;57728;50.448;18.824;2023-03-23T01:53:08;33.75;32.31;46.32;;
67398;Laerm;57728;50.448;18.824;2023-03-23T01:55:12;33.79;32.30;45.30;;
67398;Laerm;57728;50.448;18.824;2023-03-23T01:57:19;33.61;32.35;43.86;;
67398;Laerm;57728;50.448;18.824;2023-03-23T01:59:25;33.63;32.29;43.75;;
67398;Laerm;57728;50.448;18.824;2023-03-23T02:01:49;33.58;32.29;39.90;;
67398;Laerm;57728;50.448;18.824;2023-03-23T02:03:57;34.07;32.37;43.65;;
67398;Laerm;57728;50.448;18.824;2023-03-23T02:05:59;33.60;32.44;43.84;;
67398;Laerm;57728;50.448;18.824;2023-03-23T02:08:26;33.49;32.20;36.39;;
67398;Laerm;57728;50.448;18.824;2023-03-23T02:10:32;33.76;32.41;47.13;;
67398;Laerm;57728;50.448;18.824;2023-03-23T02:12:34;33.76;32.42;44.52;;
67398;Laerm;57728;50.448;18.824;2023-03-23T02:14:36;33.87;31.99;44.60;;
67398;Laerm;57728;50.448;18.824;2023-03-23T02:16:57;33.65;32.25;39.93;;
67398;Laerm;57728;50.448;18.824;2023-03-23T02:36:19;33.80;32.38;41.67;;
67398;Laerm;57728;50.448;18.824;2023-03-23T02:38:54;33.64;32.41;41.58;;
67398;Laerm;57728;50.448;18.824;2023-03-23T02:41:02;33.77;32.47;45.27;;
67398;Laerm;57728;50.448;18.824;2023-03-23T02:43:14;33.66;32.38;39.30;;
67398;Laerm;57728;50.448;18.824;2023-03-23T02:45:20;33.82;32.45;42.36;;
67398;Laerm;57728;50.448;18.824;2023-03-23T02:47:29;34.38;32.23;45.08;;
67398;Laerm;57728;50.448;18.824;2023-03-23T02:49:36;35.38;32.11;56.06;;
67398;Laerm;57728;50.448;18.824;2023-03-23T02:51:40;34.48;32.51;48.28;;
67398;Laerm;57728;50.448;18.824;2023-03-23T02:53:51;34.81;32.42;50.56;;
67398;Laerm;57728;50.448;18.824;2023-03-23T02:55:57;33.92;32.39;44.93;;
67398;Laerm;57728;50.448;18.824;2023-03-23T02:58:02;34.15;32.46;47.31;;
67398;Laerm;57728;50.448;18.824;2023-03-23T03:00:07;34.82;32.48;50.61;;
67398;Laerm;57728;50.448;18.824;2023-03-23T03:02:34;34.86;32.44;52.76;;
67398;Laerm;57728;50.448;18.824;2023-03-23T03:04:53;34.14;32.44;47.60;;
67398;Laerm;57728;50.448;18.824;2023-03-23T03:10:22;34.48;32.29;49.94;;
67398;Laerm;57728;50.448;18.824;2023-03-23T03:12:47;35.31;32.51;51.19;;
67398;Laerm;57728;50.448;18.824;2023-03-23T03:17:26;34.70;32.36;51.85;;
67398;Laerm;57728;50.448;18.824;2023-03-23T03:19:42;34.29;32.53;51.71;;
67398;Laerm;57728;50.448;18.824;2023-03-23T03:21:49;34.39;32.44;47.74;;
67398;Laerm;57728;50.448;18.824;2023-03-23T03:24:03;37.66;32.21;61.35;;
67398;Laerm;57728;50.448;18.824;2023-03-23T03:26:06;35.17;32.40;48.70;;
67398;Laerm;57728;50.448;18.824;2023-03-23T03:28:21;34.63;32.38;47.25;;
67398;Laerm;57728;50.448;18.824;2023-03-23T03:30:33;34.82;32.37;51.34;;
67398;Laerm;57728;50.448;18.824;2023-03-23T03:32:51;34.81;32.31;50.37;;
67398;Laerm;57728;50.448;18.824;2023-03-23T03:34:55;35.49;32.56;49.37;;
67398;Laerm;57728;50.448;18.824;2023-03-23T03:36:59;34.43;32.55;51.47;;
67398;Laerm;57728;50.448;18.824;2023-03-23T03:39:08;34.76;32.48;52.65;;
67398;Laerm;57728;50.448;18.824;2023-03-23T03:41:11;34.28;32.43;42.75;;
67398;Laerm;57728;50.448;18.824;2023-03-23T03:43:13;34.77;32.43;51.02;;
67398;Laerm;57728;50.448;18.824;2023-03-23T03:45:19;34.27;32.50;45.26;;
67398;Laerm;57728;50.448;18.824;2023-03-23T03:47:20;34.24;32.37;50.98;;
67398;Laerm;57728;50.448;18.824;2023-03-23T03:49:22;34.16;32.40;46.51;;
67398;Laerm;57728;50.448;18.824;2023-03-23T03:51:27;35.33;32.56;53.48;;
67398;Laerm;57728;50.448;18.824;2023-03-23T03:53:30;35.77;32.53;47.41;;
67398;Laerm;57728;50.448;18.824;2023-03-23T03:55:33;35.08;32.63;48.35;;
67398;Laerm;57728;50.448;18.824;2023-03-23T03:57:43;35.49;32.56;56.24;;
67398;Laerm;57728;50.448;18.824;2023-03-23T04:00:09;35.01;32.40;47.29;;
67398;Laerm;57728;50.448;18.824;2023-03-23T04:02:15;34.73;32.52;48.43;;
67398;Laerm;57728;50.448;18.824;2023-03-23T04:04:21;34.28;32.54;43.89;;
67398;Laerm;57728;50.448;18.824;2023-03-23T04:06:23;34.13;32.58;40.78;;
67398;Laerm;57728;50.448;18.824;2023-03-23T04:08:26;34.09;32.55;39.25;;
67398;Laerm;57728;50.448;18.824;2023-03-23T04:10:31;34.31;32.61;46.50;;
67398;Laerm;57728;50.448;18.824;2023-03-23T04:12:33;34.11;32.80;41.22;;
67398;Laerm;57728;50.448;18.824;2023-03-23T04:15:10;34.49;32.58;49.26;;
67398;Laerm;57728;50.448;18.824;2023-03-23T04:17:12;34.15;32.42;47.10;;
67398;Laerm;57728;50.448;18.824;2023-03-23T04:19:16;34.02;32.54;45.96;;
67398;Laerm;57728;50.448;18.824;2023-03-23T04:21:19;34.41;32.26;48.36;;
67398;Laerm;57728;50.448;18.824;2023-03-23T04:23:27;34.18;32.65;39.44;;
67398;Laerm;57728;50.448;18.824;2023-03-23T04:25:34;34.77;32.76;42.22;;
67398;Laerm;57728;50.448;18.824;2023-03-23T04:27:37;34.14;32.66;43.76;;
67398;Laerm;57728;50.448;18.824;2023-03-23T04:29:41;33.79;32.60;37.68;;
67398;Laerm;57728;50.448;18.824;2023-03-23T04:32:04;34.07;32.61;38.54;;
67398;Laerm;57728;50.448;18.824;2023-03-23T04:34:12;34.31;32.61;41.07;;
67398;Laerm;57728;50.448;18.824;2023-03-23T04:36:22;34.63;32.72;49.19;;
67398;Laerm;57728;50.448;18.824;2023-03-23T04:38:32;34.51;32.81;40.40;;
67398;Laerm;57728;50.448;18.824;2023-03-23T04:40:43;34.65;32.82;48.56;;
67398;Laerm;57728;50.448;18.824;2023-03-23T04:43:00;34.42;32.83;48.44;;
67398;Laerm;57728;50.448;18.824;2023-03-23T04:45:25;34.39;32.69;43.05;;
67398;Laerm;57728;50.448;18.824;2023-03-23T04:47:34;34.44;32.79;43.86;;
67398;Laerm;57728;50.448;18.824;2023-03-23T04:49:41;34.51;32.42;42.84;;
67398;Laerm;57728;50.448;18.824;2023-03-23T04:51:50;34.52;32.74;46.59;;
67398;Laerm;57728;50.448;18.824;2023-03-23T04:54:01;34.66;32.70;45.22;;
67398;Laerm;57728;50.448;18.824;2023-03-23T04:56:06;35.04;32.73;48.64;;
67398;Laerm;57728;50.448;18.824;2023-03-23T04:58:15;34.08;32.44;39.83;;
67398;Laerm;57728;50.448;18.824;2023-03-23T05:00:43;33.90;32.63;39.42;;
67398;Laerm;57728;50.448;18.824;2023-03-23T05:02:52;34.49;32.70;46.92;;
67398;Laerm;57728;50.448;18.824;2023-03-23T05:04:57;35.19;32.79;46.40;;
67398;Laerm;57728;50.448;18.824;2023-03-23T05:07:01;34.69;32.80;46.04;;
67398;Laerm;57728;50.448;18.824;2023-03-23T05:09:06;34.21;32.75;40.83;;
67398;Laerm;57728;50.448;18.824;2023-03-23T05:11:07;34.49;32.64;40.80;;
67398;Laerm;57728;50.448;18.824;2023-03-23T05:13:12;34.29;32.83;39.80;;
67398;Laerm;57728;50.448;18.824;2023-03-23T05:15:16;35.10;32.79;46.73;;
67398;Laerm;57728;50.448;18.824;2023-03-23T05:17:20;34.52;32.75;41.72;;
67398;Laerm;57728;50.448;18.824;2023-03-23T05:19:24;34.99;32.79;44.27;;
67398;Laerm;57728;50.448;18.824;2023-03-23T05:21:28;35.64;32.82;47.40;;
67398;Laerm;57728;50.448;18.824;2023-03-23T05:23:29;36.44;33.13;51.58;;
67398;Laerm;57728;50.448;18.824;2023-03-23T05:25:40;35.35;33.16;46.58;;
67398;Laerm;57728;50.448;18.824;2023-03-23T05:27:49;36.39;32.79;57.11;;
67398;Laerm;57728;50.448;18.824;2023-03-23T05:30:16;35.06;32.86;46.10;;
67398;Laerm;57728;50.448;18.824;2023-03-23T05:32:19;35.58;33.05;49.99;;
67398;Laerm;57728;50.448;18.824;2023-03-23T05:34:24;34.58;33.02;46.29;;
67398;Laerm;57728;50.448;18.824;2023-03-23T05:36:31;35.41;33.02;50.93;;
67398;Laerm;57728;50.448;18.824;2023-03-23T05:39:08;36.90;33.03;46.42;;
67398;Laerm;57728;50.448;18.824;2023-03-23T05:41:39;37.30;32.76;50.62;;
67398;Laerm;57728;50.448;18.824;2023-03-23T05:43:41;35.46;33.03;50.22;;
67398;Laerm;57728;50.448;18.824;2023-03-23T05:45:55;35.32;33.05;51.52;;
67398;Laerm;57728;50.448;18.824;2023-03-23T05:47:57;35.56;33.19;51.73;;
67398;Laerm;57728;50.448;18.824;2023-03-23T05:50:02;35.24;33.04;48.37;;
67398;Laerm;57728;50.448;18.824;2023-03-23T05:52:05;35.12;33.02;44.36;;
67398;Laerm;57728;50.448;18.824;2023-03-23T05:54:08;35.66;32.99;52.36;;
67398;Laerm;57728;50.448;18.824;2023-03-23T05:56:11;35.45;32.92;50.92;;
67398;Laerm;57728;50.448;18.824;2023-03-23T05:58:35;35.30;32.95;48.79;;
67398;Laerm;57728;50.448;18.824;2023-03-23T06:00:40;35.36;33.02;50.53;;
67398;Laerm;57728;50.448;18.824;2023-03-23T06:02:55;35.93;32.94;54.48;;
67398;Laerm;57728;50.448;18.824;2023-03-23T06:05:06;35.68;32.80;48.87;;
67398;Laerm;57728;50.448;18.824;2023-03-23T06:07:10;35.36;33.04;47.41;;
67398;Laerm;57728;50.448;18.824;2023-03-23T06:09:18;35.70;32.99;52.80;;
67398;Laerm;57728;50.448;18.824;2023-03-23T06:11:52;34.86;32.92;46.76;;
67398;Laerm;57728;50.448;18.824;2023-03-23T06:14:08;35.62;32.90;51.67;;
67398;Laerm;57728;50.448;18.824;2023-03-23T06:16:10;35.79;32.99;50.57;;
67398;Laerm;57728;50.448;18.824;2023-03-23T06:18:26;36.49;32.94;51.86;;
67398;Laerm;57728;50.448;18.824;2023-03-23T06:20:52;34.90;32.86;51.11;;
67398;Laerm;57728;50.448;18.824;2023-03-23T06:23:05;34.90;32.84;46.19;;
67398;Laerm;57728;50.448;18.824;2023-03-23T06:25:10;35.71;33.04;51.47;;
67398;Laerm;57728;50.448;18.824;2023-03-23T06:27:17;35.61;33.04;53.12;;
67398;Laerm;57728;50.448;18.824;2023-03-23T06:29:20;34.94;32.81;46.55;;
67398;Laerm;57728;50.448;18.824;2023-03-23T06:31:28;37.30;32.67;54.20;;
67398;Laerm;57728;50.448;18.824;2023-03-23T06:33:30;35.28;32.96;45.25;;
67398;Laerm;57728;50.448;18.824;2023-03-23T06:35:59;35.90;32.59;55.57;;
67398;Laerm;57728;50.448;18.824;2023-03-23T06:38:13;34.66;32.90;44.06;;
67398;Laerm;57728;50.448;18.824;2023-03-23T06:40:23;35.37;33.01;46.19;;
67398;Laerm;57728;50.448;18.824;2023-03-23T06:42:28;35.40;33.09;48.92;;
67398;Laerm;57728;50.448;18.824;2023-03-23T06:44:51;35.29;32.96;54.18;;
67398;Laerm;57728;50.448;18.824;2023-03-23T06:46:53;35.48;32.86;44.82;;
67398;Laerm;57728;50.448;18.824;2023-03-23T06:49:01;35.28;33.26;46.73;;
67398;Laerm;57728;50.448;18.824;2023-03-23T06:51:11;35.94;33.36;52.71;;
67398;Laerm;57728;50.448;18.824;2023-03-23T06:53:16;34.93;33.02;41.52;;
67398;Laerm;57728;50.448;18.824;2023-03-23T06:55:19;35.24;33.00;47.80;;
67398;Laerm;57728;50.448;18.824;2023-03-23T06:57:20;36.79;33.10;54.59;;
67398;Laerm;57728;50.448;18.824;2023-03-23T06:59:25;36.33;33.27;43.56;;
67398;Laerm;57728;50.448;18.824;2023-03-23T07:01:27;35.51;33.08;45.34;;
67398;Laerm;57728;50.448;18.824;2023-03-23T07:03:34;35.05;32.64;48.56;;
67398;Laerm;57728;50.448;18.824;2023-03-23T07:05:37;35.23;32.76;44.67;;
67398;Laerm;57728;50.448;18.824;2023-03-23T07:07:40;34.97;32.71;46.14;;
67398;Laerm;57728;50.448;18.824;2023-03-23T07:09:56;34.87;32.76;51.07;;
67398;Laerm;57728;50.448;18.824;2023-03-23T07:12:00;34.77;32.71;48.45;;
67398;Laerm;57728;50.448;18.824;2023-03-23T07:14:07;34.91;32.72;50.20;;
67398;Laerm;57728;50.448;18.824;2023-03-23T07:16:09;37.19;32.72;54.95;;
67398;Laerm;57728;50.448;18.824;2023-03-23T07:18:13;35.44;32.86;48.56;;
67398;Laerm;57728;50.448;18.824;2023-03-23T07:20:19;34.77;32.98;43.78;;
67398;Laerm;57728;50.448;18.824;2023-03-23T07:22:21;34.35;32.87;42.23;;
67398;Laerm;57728;50.448;18.824;2023-03-23T07:24:30;34.59;32.77;42.31;;
67398;Laerm;57728;50.448;18.824;2023-03-23T07:26:54;34.60;32.76;46.31;;
67398;Laerm;57728;50.448;18.824;2023-03-23T07:28:57;34.85;32.89;46.59;;
67398;Laerm;57728;50.448;18.824;2023-03-23T07:31:06;34.67;32.56;46.05;;
67398;Laerm;57728;50.448;18.824;2023-03-23T07:33:10;36.30;32.99;54.58;;
67398;Laerm;57728;50.448;18.824;2023-03-23T07:35:12;35.02;32.94;44.89;;
67398;Laerm;57728;50.448;18.824;2023-03-23T07:37:33;41.90;32.53;73.52;;
67398;Laerm;57728;50.448;18.824;2023-03-23T07:39:35;35.34;32.84;52.11;;
67398;Laerm;57728;50.448;18.824;2023-03-23T07:41:37;37.97;32.90;52.68;;
67398;Laerm;57728;50.448;18.824;2023-03-23T07:43:50;37.52;32.82;51.91;;
67398;Laerm;57728;50.448;18.824;2023-03-23T07:45:57;35.13;32.80;54.44;;
67398;Laerm;57728;50.448;18.824;2023-03-23T07:48:04;36.30;32.49;54.60;;
67398;Laerm;57728;50.448;18.824;2023-03-23T07:50:08;35.01;32.73;46.37;;
67398;Laerm;57728;50.448;18.824;2023-03-23T07:52:14;34.14;32.58;43.13;;
67398;Laerm;57728;50.448;18.824;2023-03-23T07:54:15;34.79;32.65;49.26;;
67398;Laerm;57728;50.448;18.824;2023-03-23T07:56:37;35.67;32.70;51.10;;
67398;Laerm;57728;50.448;18.824;2023-03-23T07:58:54;35.25;32.71;50.55;;
67398;Laerm;57728;50.448;18.824;2023-03-23T08:00:56;36.11;32.96;44.75;;
67398;Laerm;57728;50.448;18.824;2023-03-23T08:03:05;34.78;32.91;47.37;;
67398;Laerm;57728;50.448;18.824;2023-03-23T08:05:08;34.57;32.53;46.88;;
67398;Laerm;57728;50.448;18.824;2023-03-23T08:07:42;35.78;32.82;48.61;;
67398;Laerm;57728;50.448;18.824;2023-03-23T08:10:13;36.11;32.82;53.65;;
67398;Laerm;57728;50.448;18.824;2023-03-23T08:12:15;38.84;33.11;60.22;;
67398;Laerm;57728;50.448;18.824;2023-03-23T08:14:44;34.99;32.40;47.32;;
67398;Laerm;57728;50.448;18.824;2023-03-23T08:17:09;35.44;32.87;51.68;;
67398;Laerm;57728;50.448;18.824;2023-03-23T08:19:21;35.58;32.81;55.25;;
67398;Laerm;57728;50.448;18.824;2023-03-23T08:21:56;36.32;32.83;57.31;;
67398;Laerm;57728;50.448;18.824;2023-03-23T08:24:24;37.07;32.74;57.37;;
67398;Laerm;57728;50.448;18.824;2023-03-23T08:26:58;34.65;32.77;47.72;;
67398;Laerm;57728;50.448;18.824;2023-03-23T08:29:19;37.53;32.79;54.15;;
67398;Laerm;57728;50.448;18.824;2023-03-23T08:31:40;35.46;32.53;52.80;;
67398;Laerm;57728;50.448;18.824;2023-03-23T08:34:01;34.77;32.56;50.13;;
67398;Laerm;57728;50.448;18.824;2023-03-23T08:36:25;35.62;32.63;55.71;;
67398;Laerm;57728;50.448;18.824;2023-03-23T08:38:31;35.76;32.71;50.88;;
67398;Laerm;57728;50.448;18.824;2023-03-23T08:41:11;34.76;32.67;49.44;;
67398;Laerm;57728;50.448;18.824;2023-03-23T08:43:42;35.26;32.59;54.57;;
67398;Laerm;57728;50.448;18.824;2023-03-23T08:46:03;36.51;32.61;52.78;;
67398;Laerm;57728;50.448;18.824;2023-03-23T08:48:28;38.79;32.87;61.76;;
67398;Laerm;57728;50.448;18.824;2023-03-23T08:50:51;38.31;32.95;58.01;;
67398;Laerm;57728;50.448;18.824;2023-03-23T08:53:11;34.54;32.76;48.21;;
67398;Laerm;57728;50.448;18.824;2023-03-23T08:55:33;39.17;32.88;53.57;;
67398;Laerm;57728;50.448;18.824;2023-03-23T08:57:54;36.38;32.69;58.36;;
67398;Laerm;57728;50.448;18.824;2023-03-23T09:00:12;35.00;32.56;49.24;;
67398;Laerm;57728;50.448;18.824;2023-03-23T09:02:37;34.44;32.45;50.55;;
67398;Laerm;57728;50.448;18.824;2023-03-23T09:04:49;35.03;32.50;49.74;;
67398;Laerm;57728;50.448;18.824;2023-03-23T09:07:19;37.37;32.52;59.60;;
67398;Laerm;57728;50.448;18.824;2023-03-23T09:09:21;38.08;32.52;62.92;;
67398;Laerm;57728;50.448;18.824;2023-03-23T09:11:23;34.75;32.70;51.33;;
67398;Laerm;57728;50.448;18.824;2023-03-23T09:13:25;37.99;32.75;60.05;;
67398;Laerm;57728;50.448;18.824;2023-03-23T09:15:26;37.51;32.93;57.94;;
67398;Laerm;57728;50.448;18.824;2023-03-23T09:17:29;35.06;32.38;45.31;;
67398;Laerm;57728;50.448;18.824;2023-03-23T09:19:33;34.96;32.53;46.47;;
67398;Laerm;57728;50.448;18.824;2023-03-23T09:21:34;36.70;32.61;59.13;;
67398;Laerm;57728;50.448;18.824;2023-03-23T09:23:37;34.86;32.56;51.47;;
67398;Laerm;57728;50.448;18.824;2023-03-23T09:25:39;37.97;32.74;54.24;;
67398;Laerm;57728;50.448;18.824;2023-03-23T09:27:42;36.95;32.52;61.32;;
67398;Laerm;57728;50.448;18.824;2023-03-23T09:29:44;35.44;32.70;49.24;;
67398;Laerm;57728;50.448;18.824;2023-03-23T09:31:46;35.19;32.67;49.97;;
67398;Laerm;57728;50.448;18.824;2023-03-23T09:33:48;35.41;32.70;51.87;;
67398;Laerm;57728;50.448;18.824;2023-03-23T09:35:53;35.03;32.58;50.10;;
67398;Laerm;57728;50.448;18.824;2023-03-23T09:37:55;38.17;32.71;58.58;;
67398;Laerm;57728;50.448;18.824;2023-03-23T09:39:56;43.04;33.45;65.83;;
67398;Laerm;57728;50.448;18.824;2023-03-23T09:47:20;43.19;33.47;67.86;;
67398;Laerm;57728;50.448;18.824;2023-03-23T09:49:37;43.54;33.12;66.98;;
67398;Laerm;57728;50.448;18.824;2023-03-23T09:51:54;44.75;33.34;73.01;;
67398;Laerm;57728;50.448;18.824;2023-03-23T09:54:25;39.85;33.08;58.91;;
67398;Laerm;57728;50.448;18.824;2023-03-23T09:56:31;42.32;33.23;68.90;;
67398;Laerm;57728;50.448;18.824;2023-03-23T09:58:58;40.62;32.99;61.06;;
67398;Laerm;57728;50.448;18.824;2023-03-23T10:01:17;39.57;33.04;62.65;;
67398;Laerm;57728;50.448;18.824;2023-03-23T10:03:30;38.84;32.92;61.89;;
67398;Laerm;57728;50.448;18.824;2023-03-23T10:05:36;35.23;32.91;49.29;;
67398;Laerm;57728;50.448;18.824;2023-03-23T10:07:38;41.07;33.40;59.69;;
67398;Laerm;57728;50.448;18.824;2023-03-23T10:09:45;38.69;33.00;48.52;;
67398;Laerm;57728;50.448;18.824;2023-03-23T10:12:21;40.53;33.13;63.41;;
67398;Laerm;57728;50.448;18.824;2023-03-23T10:16:37;38.11;32.99;55.91;;
67398;Laerm;57728;50.448;18.824;2023-03-23T10:20:59;41.10;33.31;61.24;;
67398;Laerm;57728;50.448;18.824;2023-03-23T10:25:29;40.95;33.19;61.12;;
67398;Laerm;57728;50.448;18.824;2023-03-23T10:32:53;40.83;33.05;63.67;;
67398;Laerm;57728;50.448;18.824;2023-03-23T10:35:09;41.31;33.00;63.85;;
67398;Laerm;57728;50.448;18.824;2023-03-23T10:37:22;41.93;33.07;65.68;;
67398;Laerm;57728;50.448;18.824;2023-03-23T10:39:37;40.34;33.39;60.69;;
67398;Laerm;57728;50.448;18.824;2023-03-23T10:41:40;41.18;33.16;67.09;;
67398;Laerm;57728;50.448;18.824;2023-03-23T10:43:44;41.18;33.07;59.06;;
67398;Laerm;57728;50.448;18.824;2023-03-23T10:45:57;44.57;33.00;78.05;;
67398;Laerm;57728;50.448;18.824;2023-03-23T10:48:17;42.95;33.38;65.31;;
67398;Laerm;57728;50.448;18.824;2023-03-23T10:50:34;39.61;32.84;63.89;;
67398;Laerm;57728;50.448;18.824;2023-03-23T10:52:41;35.31;32.72;49.04;;
67398;Laerm;57728;50.448;18.824;2023-03-23T10:57:28;40.27;32.98;63.41;;
67398;Laerm;57728;50.448;18.824;2023-03-23T10:59:31;39.86;33.09;53.27;;
67398;Laerm;57728;50.448;18.824;2023-03-23T11:01:35;37.41;32.99;53.40;;
67398;Laerm;57728;50.448;18.824;2023-03-23T11:03:43;36.77;32.80;54.89;;
67398;Laerm;57728;50.448;18.824;2023-03-23T11:06:08;41.07;33.15;68.95;;
67398;Laerm;57728;50.448;18.824;2023-03-23T11:08:22;34.73;32.64;49.10;;
67398;Laerm;57728;50.448;18.824;2023-03-23T11:10:40;41.38;32.78;67.09;;
67398;Laerm;57728;50.448;18.824;2023-03-23T11:12:45;38.45;32.65;61.56;;
67398;Laerm;57728;50.448;18.824;2023-03-23T11:14:47;35.56;32.66;51.71;;
67398;Laerm;57728;50.448;18.824;2023-03-23T11:16:54;39.32;33.34;57.66;;
67398;Laerm;57728;50.448;18.824;2023-03-23T11:19:13;34.91;32.71;45.89;;
67398;Laerm;57728;50.448;18.824;2023-03-23T11:21:15;34.95;32.57;50.31;;
67398;Laerm;57728;50.448;18.824;2023-03-23T11:25:25;38.26;32.50;49.71;;
67398;Laerm;57728;50.448;18.824;2023-03-23T11:27:29;35.41;32.77;45.59;;
67398;Laerm;57728;50.448;18.824;2023-03-23T11:29:31;40.12;33.01;63.52;;
67398;Laerm;57728;50.448;18.824;2023-03-23T11:31:39;43.90;32.96;73.08;;
67398;Laerm;57728;50.448;18.824;2023-03-23T11:33:58;36.21;32.76;53.29;;
67398;Laerm;57728;50.448;18.824;2023-03-23T11:36:02;38.61;32.92;56.09;;
67398;Laerm;57728;50.448;18.824;2023-03-23T11:38:04;40.57;33.04;59.84;;
67398;Laerm;57728;50.448;18.824;2023-03-23T11:42:22;39.88;35.91;57.08;;
67398;Laerm;57728;50.448;18.824;2023-03-23T11:44:34;38.71;35.70;49.37;;
67398;Laerm;57728;50.448;18.824;2023-03-23T11:47:37;40.56;35.42;58.13;;
67398;Laerm;57728;50.448;18.824;2023-03-23T11:51:58;51.55;46.15;60.92;;
67398;Laerm;57728;50.448;18.824;2023-03-23T11:54:17;51.76;46.97;59.19;;
67398;Laerm;57728;50.448;18.824;2023-03-23T11:56:34;51.71;46.40;60.45;;
67398;Laerm;57728;50.448;18.824;2023-03-23T11:58:36;51.98;44.95;60.71;;
67398;Laerm;57728;50.448;18.824;2023-03-23T12:01:11;52.38;46.98;57.91;;
67398;Laerm;57728;50.448;18.824;2023-03-23T12:06:03;43.94;32.99;59.00;;
67398;Laerm;57728;50.448;18.824;2023-03-23T12:11:09;45.67;33.35;59.81;;
67398;Laerm;57728;50.448;18.824;2023-03-23T12:19:06;38.67;33.26;61.34;;
67398;Laerm;57728;50.448;18.824;2023-03-23T12:34:42;35.01;33.02;48.44;;
67398;Laerm;57728;50.448;18.824;2023-03-23T12:44:27;37.70;32.61;59.45;;
67398;Laerm;57728;50.448;18.824;2023-03-23T12:47:02;35.92;32.82;52.58;;
67398;Laerm;57728;50.448;18.824;2023-03-23T12:56:19;37.42;32.91;57.22;;
67398;Laerm;57728;50.448;18.824;2023-03-23T12:58:29;35.34;32.84;48.48;;
67398;Laerm;57728;50.448;18.824;2023-03-23T13:01:08;34.50;32.58;53.23;;
67398;Laerm;57728;50.448;18.824;2023-03-23T13:03:51;36.03;32.83;47.70;;
67398;Laerm;57728;50.448;18.824;2023-03-23T13:08:23;39.27;32.51;63.36;;
67398;Laerm;57728;50.448;18.824;2023-03-23T13:10:42;35.89;32.65;54.83;;
67398;Laerm;57728;50.448;18.824;2023-03-23T13:12:49;35.97;32.80;52.71;;
67398;Laerm;57728;50.448;18.824;2023-03-23T13:15:32;35.89;32.58;53.47;;
67398;Laerm;57728;50.448;18.824;2023-03-23T13:18:00;38.68;32.87;61.55;;
67398;Laerm;57728;50.448;18.824;2023-03-23T13:20:34;37.20;32.48;60.29;;
67398;Laerm;57728;50.448;18.824;2023-03-23T13:23:02;35.66;32.54;50.16;;
67398;Laerm;57728;50.448;18.824;2023-03-23T13:28:01;34.99;32.35;49.93;;
67398;Laerm;57728;50.448;18.824;2023-03-23T13:30:03;34.53;32.62;42.09;;
67398;Laerm;57728;50.448;18.824;2023-03-23T13:32:19;34.89;32.50;46.53;;